sensor_id;sensor_type;location;lat;lon;timestamp;P1;durP1;ratioP1;P2;durP2;ratioP2
12445;SDS011;6287;50.984;7.022;2023-02-11T00:00:15;20.77;;;9.43;;
12445;SDS011;6287;50.984;7.022;2023-02-11T00:02:44;18.93;;;10.50;;
12445;SDS011;6287;50.984;7.022;2023-02-11T00:05:10;15.57;;;9.17;;
12445;SDS011;6287;50.984;7.022;2023-02-11T00:07:35;17.53;;;8.77;;
12445;SDS011;6287;50.984;7.022;2023-02-11T00:10:02;17.13;;;9.80;;
12445;SDS011;6287;50.984;7.022;2023-02-11T00:12:32;17.93;;;8.17;;
12445;SDS011;6287;50.984;7.022;2023-02-11T00:15:01;18.33;;;9.33;;
12445;SDS011;6287;50.984;7.022;2023-02-11T00:17:30;17.47;;;8.97;;
12445;SDS011;6287;50.984;7.022;2023-02-11T00:19:56;16.63;;;8.63;;
12445;SDS011;6287;50.984;7.022;2023-02-11T00:22:26;14.63;;;8.67;;
12445;SDS011;6287;50.984;7.022;2023-02-11T00:24:52;15.10;;;8.97;;
12445;SDS011;6287;50.984;7.022;2023-02-11T00:27:21;15.53;;;7.97;;
12445;SDS011;6287;50.984;7.022;2023-02-11T00:29:49;18.87;;;9.50;;
12445;SDS011;6287;50.984;7.022;2023-02-11T00:32:15;16.77;;;8.17;;
12445;SDS011;6287;50.984;7.022;2023-02-11T00:34:43;17.10;;;8.90;;
12445;SDS011;6287;50.984;7.022;2023-02-11T00:37:09;16.50;;;8.50;;
12445;SDS011;6287;50.984;7.022;2023-02-11T00:39:36;15.47;;;8.00;;
12445;SDS011;6287;50.984;7.022;2023-02-11T00:42:04;14.57;;;8.00;;
12445;SDS011;6287;50.984;7.022;2023-02-11T00:44:32;14.70;;;8.43;;
12445;SDS011;6287;50.984;7.022;2023-02-11T00:47:02;14.37;;;8.40;;
12445;SDS011;6287;50.984;7.022;2023-02-11T00:49:32;15.47;;;8.10;;
12445;SDS011;6287;50.984;7.022;2023-02-11T00:51:58;14.67;;;8.37;;
12445;SDS011;6287;50.984;7.022;2023-02-11T00:54:28;16.83;;;8.50;;
12445;SDS011;6287;50.984;7.022;2023-02-11T00:56:54;13.70;;;8.33;;
12445;SDS011;6287;50.984;7.022;2023-02-11T00:59:20;13.23;;;8.40;;
12445;SDS011;6287;50.984;7.022;2023-02-11T01:01:47;13.40;;;8.23;;
12445;SDS011;6287;50.984;7.022;2023-02-11T01:04:15;13.10;;;7.70;;
12445;SDS011;6287;50.984;7.022;2023-02-11T01:06:41;16.77;;;8.83;;
12445;SDS011;6287;50.984;7.022;2023-02-11T01:09:09;15.10;;;7.50;;
12445;SDS011;6287;50.984;7.022;2023-02-11T01:11:39;16.30;;;8.63;;
12445;SDS011;6287;50.984;7.022;2023-02-11T01:14:04;13.97;;;7.80;;
12445;SDS011;6287;50.984;7.022;2023-02-11T01:16:32;16.43;;;8.10;;
12445;SDS011;6287;50.984;7.022;2023-02-11T01:18:58;16.03;;;8.40;;
12445;SDS011;6287;50.984;7.022;2023-02-11T01:21:24;14.40;;;8.43;;
12445;SDS011;6287;50.984;7.022;2023-02-11T01:23:52;15.63;;;8.93;;
12445;SDS011;6287;50.984;7.022;2023-02-11T01:26:22;13.87;;;8.10;;
12445;SDS011;6287;50.984;7.022;2023-02-11T01:28:48;16.43;;;8.13;;
12445;SDS011;6287;50.984;7.022;2023-02-11T01:31:14;13.37;;;7.33;;
12445;SDS011;6287;50.984;7.022;2023-02-11T01:33:42;14.43;;;7.90;;
12445;SDS011;6287;50.984;7.022;2023-02-11T01:36:08;13.93;;;8.20;;
12445;SDS011;6287;50.984;7.022;2023-02-11T01:38:37;14.23;;;8.20;;
12445;SDS011;6287;50.984;7.022;2023-02-11T01:41:07;18.07;;;8.83;;
12445;SDS011;6287;50.984;7.022;2023-02-11T01:43:40;15.43;;;8.57;;
12445;SDS011;6287;50.984;7.022;2023-02-11T01:48:48;14.23;;;8.03;;
12445;SDS011;6287;50.984;7.022;2023-02-11T01:51:21;14.07;;;7.60;;
12445;SDS011;6287;50.984;7.022;2023-02-11T01:53:50;16.13;;;7.90;;
12445;SDS011;6287;50.984;7.022;2023-02-11T01:56:36;14.13;;;7.77;;
12445;SDS011;6287;50.984;7.022;2023-02-11T01:59:29;15.20;;;8.03;;
12445;SDS011;6287;50.984;7.022;2023-02-11T02:02:02;14.33;;;7.80;;
12445;SDS011;6287;50.984;7.022;2023-02-11T02:04:37;15.47;;;7.97;;
12445;SDS011;6287;50.984;7.022;2023-02-11T02:07:07;13.93;;;8.07;;
12445;SDS011;6287;50.984;7.022;2023-02-11T02:09:41;16.27;;;9.17;;
12445;SDS011;6287;50.984;7.022;2023-02-11T02:12:16;15.07;;;8.97;;
12445;SDS011;6287;50.984;7.022;2023-02-11T02:14:42;15.40;;;8.37;;
12445;SDS011;6287;50.984;7.022;2023-02-11T02:17:11;15.53;;;8.70;;
12445;SDS011;6287;50.984;7.022;2023-02-11T02:28:07;14.33;;;8.90;;
12445;SDS011;6287;50.984;7.022;2023-02-11T02:39:14;14.10;;;8.50;;
12445;SDS011;6287;50.984;7.022;2023-02-11T02:41:45;18.47;;;9.10;;
12445;SDS011;6287;50.984;7.022;2023-02-11T02:44:15;14.47;;;8.50;;
12445;SDS011;6287;50.984;7.022;2023-02-11T02:46:43;17.90;;;9.10;;
12445;SDS011;6287;50.984;7.022;2023-02-11T02:49:12;14.77;;;8.53;;
12445;SDS011;6287;50.984;7.022;2023-02-11T03:10:30;17.93;;;9.20;;
12445;SDS011;6287;50.984;7.022;2023-02-11T03:13:02;15.90;;;9.23;;
12445;SDS011;6287;50.984;7.022;2023-02-11T03:15:33;16.83;;;9.73;;
12445;SDS011;6287;50.984;7.022;2023-02-11T03:18:08;17.70;;;9.50;;
12445;SDS011;6287;50.984;7.022;2023-02-11T03:20:37;16.97;;;9.40;;
12445;SDS011;6287;50.984;7.022;2023-02-11T03:23:20;20.13;;;10.10;;
12445;SDS011;6287;50.984;7.022;2023-02-11T03:25:53;18.27;;;9.43;;
12445;SDS011;6287;50.984;7.022;2023-02-11T03:28:37;19.70;;;10.93;;
12445;SDS011;6287;50.984;7.022;2023-02-11T03:34:09;14.70;;;9.07;;
12445;SDS011;6287;50.984;7.022;2023-02-11T03:36:59;18.87;;;9.67;;
12445;SDS011;6287;50.984;7.022;2023-02-11T03:39:35;21.50;;;11.00;;
12445;SDS011;6287;50.984;7.022;2023-02-11T03:42:07;20.13;;;11.23;;
12445;SDS011;6287;50.984;7.022;2023-02-11T03:44:36;23.47;;;11.07;;
12445;SDS011;6287;50.984;7.022;2023-02-11T03:47:08;18.63;;;10.87;;
12445;SDS011;6287;50.984;7.022;2023-02-11T03:49:37;25.70;;;11.17;;
12445;SDS011;6287;50.984;7.022;2023-02-11T03:52:04;20.03;;;10.63;;
12445;SDS011;6287;50.984;7.022;2023-02-11T03:54:35;19.37;;;10.37;;
12445;SDS011;6287;50.984;7.022;2023-02-11T03:57:07;22.33;;;11.00;;
12445;SDS011;6287;50.984;7.022;2023-02-11T03:59:48;23.63;;;11.40;;
12445;SDS011;6287;50.984;7.022;2023-02-11T04:02:21;19.97;;;10.67;;
12445;SDS011;6287;50.984;7.022;2023-02-11T04:04:53;21.20;;;10.60;;
12445;SDS011;6287;50.984;7.022;2023-02-11T04:07:19;17.33;;;10.37;;
12445;SDS011;6287;50.984;7.022;2023-02-11T04:09:50;20.27;;;9.93;;
12445;SDS011;6287;50.984;7.022;2023-02-11T04:12:15;16.23;;;10.37;;
12445;SDS011;6287;50.984;7.022;2023-02-11T04:14:43;18.77;;;10.33;;
12445;SDS011;6287;50.984;7.022;2023-02-11T04:17:10;20.07;;;10.53;;
12445;SDS011;6287;50.984;7.022;2023-02-11T04:19:38;18.23;;;10.17;;
12445;SDS011;6287;50.984;7.022;2023-02-11T04:22:04;19.90;;;10.27;;
12445;SDS011;6287;50.984;7.022;2023-02-11T04:24:31;17.33;;;9.47;;
12445;SDS011;6287;50.984;7.022;2023-02-11T04:27:01;19.90;;;10.03;;
12445;SDS011;6287;50.984;7.022;2023-02-11T04:29:29;17.47;;;9.43;;
12445;SDS011;6287;50.984;7.022;2023-02-11T04:31:55;19.70;;;10.77;;
12445;SDS011;6287;50.984;7.022;2023-02-11T04:34:26;19.43;;;10.43;;
12445;SDS011;6287;50.984;7.022;2023-02-11T04:36:52;22.50;;;10.80;;
12445;SDS011;6287;50.984;7.022;2023-02-11T04:39:17;18.83;;;10.37;;
12445;SDS011;6287;50.984;7.022;2023-02-11T04:41:43;22.40;;;10.37;;
12445;SDS011;6287;50.984;7.022;2023-02-11T04:44:11;18.80;;;9.77;;
12445;SDS011;6287;50.984;7.022;2023-02-11T04:46:37;19.47;;;10.20;;
12445;SDS011;6287;50.984;7.022;2023-02-11T04:49:02;20.03;;;10.97;;
12445;SDS011;6287;50.984;7.022;2023-02-11T04:51:30;18.93;;;9.33;;
12445;SDS011;6287;50.984;7.022;2023-02-11T04:53:56;18.03;;;9.87;;
12445;SDS011;6287;50.984;7.022;2023-02-11T04:56:22;18.33;;;10.17;;
12445;SDS011;6287;50.984;7.022;2023-02-11T04:58:48;18.83;;;9.60;;
12445;SDS011;6287;50.984;7.022;2023-02-11T05:01:14;23.43;;;9.23;;
12445;SDS011;6287;50.984;7.022;2023-02-11T05:03:42;20.43;;;9.40;;
12445;SDS011;6287;50.984;7.022;2023-02-11T05:06:08;17.57;;;9.30;;
12445;SDS011;6287;50.984;7.022;2023-02-11T05:08:38;21.87;;;9.33;;
12445;SDS011;6287;50.984;7.022;2023-02-11T05:11:05;14.90;;;8.27;;
12445;SDS011;6287;50.984;7.022;2023-02-11T05:13:38;19.60;;;8.83;;
12445;SDS011;6287;50.984;7.022;2023-02-11T05:16:06;16.73;;;8.67;;
12445;SDS011;6287;50.984;7.022;2023-02-11T05:18:31;13.37;;;8.20;;
12445;SDS011;6287;50.984;7.022;2023-02-11T05:21:04;16.63;;;8.90;;
12445;SDS011;6287;50.984;7.022;2023-02-11T05:23:33;17.63;;;9.40;;
12445;SDS011;6287;50.984;7.022;2023-02-11T05:25:59;17.73;;;8.87;;
12445;SDS011;6287;50.984;7.022;2023-02-11T05:28:25;16.10;;;8.40;;
12445;SDS011;6287;50.984;7.022;2023-02-11T05:30:52;19.03;;;8.97;;
12445;SDS011;6287;50.984;7.022;2023-02-11T05:33:18;14.77;;;8.90;;
12445;SDS011;6287;50.984;7.022;2023-02-11T05:35:44;17.83;;;8.80;;
12445;SDS011;6287;50.984;7.022;2023-02-11T05:38:09;17.03;;;9.10;;
12445;SDS011;6287;50.984;7.022;2023-02-11T05:40:35;15.60;;;8.90;;
12445;SDS011;6287;50.984;7.022;2023-02-11T05:43:01;18.07;;;8.67;;
12445;SDS011;6287;50.984;7.022;2023-02-11T05:45:27;19.20;;;8.87;;
12445;SDS011;6287;50.984;7.022;2023-02-11T05:47:52;16.33;;;8.77;;
12445;SDS011;6287;50.984;7.022;2023-02-11T05:50:18;15.47;;;8.47;;
12445;SDS011;6287;50.984;7.022;2023-02-11T05:52:44;20.90;;;9.07;;
12445;SDS011;6287;50.984;7.022;2023-02-11T05:55:10;20.47;;;9.17;;
12445;SDS011;6287;50.984;7.022;2023-02-11T05:57:40;19.77;;;10.53;;
12445;SDS011;6287;50.984;7.022;2023-02-11T06:00:06;16.67;;;9.20;;
12445;SDS011;6287;50.984;7.022;2023-02-11T06:02:35;16.40;;;9.17;;
12445;SDS011;6287;50.984;7.022;2023-02-11T06:05:01;15.63;;;8.50;;
12445;SDS011;6287;50.984;7.022;2023-02-11T06:07:27;17.93;;;10.17;;
12445;SDS011;6287;50.984;7.022;2023-02-11T06:09:52;21.57;;;10.50;;
12445;SDS011;6287;50.984;7.022;2023-02-11T06:12:18;18.47;;;9.43;;
12445;SDS011;6287;50.984;7.022;2023-02-11T06:14:43;16.93;;;9.30;;
12445;SDS011;6287;50.984;7.022;2023-02-11T06:17:12;20.13;;;9.90;;
12445;SDS011;6287;50.984;7.022;2023-02-11T06:19:39;20.17;;;9.37;;
12445;SDS011;6287;50.984;7.022;2023-02-11T06:22:07;18.53;;;10.37;;
12445;SDS011;6287;50.984;7.022;2023-02-11T06:24:33;21.50;;;10.00;;
12445;SDS011;6287;50.984;7.022;2023-02-11T06:26:59;21.00;;;9.97;;
12445;SDS011;6287;50.984;7.022;2023-02-11T06:29:27;17.80;;;9.87;;
12445;SDS011;6287;50.984;7.022;2023-02-11T06:31:52;17.77;;;10.13;;
12445;SDS011;6287;50.984;7.022;2023-02-11T06:34:22;22.27;;;10.90;;
12445;SDS011;6287;50.984;7.022;2023-02-11T06:36:48;20.80;;;10.07;;
12445;SDS011;6287;50.984;7.022;2023-02-11T06:39:14;20.83;;;11.23;;
12445;SDS011;6287;50.984;7.022;2023-02-11T06:41:41;21.87;;;10.77;;
12445;SDS011;6287;50.984;7.022;2023-02-11T06:44:07;25.70;;;11.17;;
12445;SDS011;6287;50.984;7.022;2023-02-11T06:46:35;17.60;;;10.53;;
12445;SDS011;6287;50.984;7.022;2023-02-11T06:49:05;19.07;;;11.07;;
12445;SDS011;6287;50.984;7.022;2023-02-11T06:51:31;22.43;;;10.13;;
12445;SDS011;6287;50.984;7.022;2023-02-11T06:53:56;22.40;;;10.67;;
12445;SDS011;6287;50.984;7.022;2023-02-11T06:56:24;19.17;;;9.87;;
12445;SDS011;6287;50.984;7.022;2023-02-11T06:58:54;21.50;;;10.50;;
12445;SDS011;6287;50.984;7.022;2023-02-11T07:01:20;24.03;;;10.40;;
12445;SDS011;6287;50.984;7.022;2023-02-11T07:03:46;20.30;;;9.87;;
12445;SDS011;6287;50.984;7.022;2023-02-11T07:06:13;16.83;;;10.23;;
12445;SDS011;6287;50.984;7.022;2023-02-11T07:08:41;19.20;;;10.43;;
12445;SDS011;6287;50.984;7.022;2023-02-11T07:13:36;21.90;;;10.63;;
12445;SDS011;6287;50.984;7.022;2023-02-11T07:16:04;20.07;;;10.80;;
12445;SDS011;6287;50.984;7.022;2023-02-11T07:18:34;21.17;;;10.40;;
12445;SDS011;6287;50.984;7.022;2023-02-11T07:21:06;19.83;;;10.70;;
12445;SDS011;6287;50.984;7.022;2023-02-11T07:23:33;21.83;;;11.13;;
12445;SDS011;6287;50.984;7.022;2023-02-11T07:26:05;23.03;;;11.57;;
12445;SDS011;6287;50.984;7.022;2023-02-11T07:28:35;20.37;;;10.73;;
12445;SDS011;6287;50.984;7.022;2023-02-11T07:31:08;25.17;;;10.93;;
12445;SDS011;6287;50.984;7.022;2023-02-11T07:33:42;19.10;;;10.70;;
12445;SDS011;6287;50.984;7.022;2023-02-11T07:36:09;24.43;;;11.70;;
12445;SDS011;6287;50.984;7.022;2023-02-11T07:38:36;22.23;;;11.60;;
12445;SDS011;6287;50.984;7.022;2023-02-11T07:41:03;22.57;;;11.63;;
12445;SDS011;6287;50.984;7.022;2023-02-11T07:43:34;22.37;;;10.90;;
12445;SDS011;6287;50.984;7.022;2023-02-11T07:46:08;24.03;;;11.13;;
12445;SDS011;6287;50.984;7.022;2023-02-11T07:48:41;24.43;;;10.63;;
12445;SDS011;6287;50.984;7.022;2023-02-11T07:51:08;26.80;;;13.50;;
12445;SDS011;6287;50.984;7.022;2023-02-11T07:53:39;24.27;;;11.57;;
12445;SDS011;6287;50.984;7.022;2023-02-11T07:56:08;25.00;;;12.47;;
12445;SDS011;6287;50.984;7.022;2023-02-11T07:58:34;22.63;;;11.37;;
12445;SDS011;6287;50.984;7.022;2023-02-11T08:01:06;21.77;;;11.20;;
12445;SDS011;6287;50.984;7.022;2023-02-11T08:03:39;22.00;;;11.17;;
12445;SDS011;6287;50.984;7.022;2023-02-11T08:06:07;23.77;;;12.17;;
12445;SDS011;6287;50.984;7.022;2023-02-11T08:08:37;25.27;;;11.17;;
12445;SDS011;6287;50.984;7.022;2023-02-11T08:11:06;22.90;;;12.27;;
12445;SDS011;6287;50.984;7.022;2023-02-11T08:13:39;22.77;;;11.27;;
12445;SDS011;6287;50.984;7.022;2023-02-11T08:16:05;24.00;;;11.63;;
12445;SDS011;6287;50.984;7.022;2023-02-11T08:18:32;26.13;;;12.10;;
12445;SDS011;6287;50.984;7.022;2023-02-11T08:21:05;25.07;;;12.43;;
12445;SDS011;6287;50.984;7.022;2023-02-11T08:23:31;24.30;;;11.93;;
12445;SDS011;6287;50.984;7.022;2023-02-11T08:26:07;24.10;;;12.10;;
12445;SDS011;6287;50.984;7.022;2023-02-11T08:28:37;23.30;;;12.30;;
12445;SDS011;6287;50.984;7.022;2023-02-11T08:31:04;22.87;;;12.13;;
12445;SDS011;6287;50.984;7.022;2023-02-11T08:33:33;25.60;;;11.90;;
12445;SDS011;6287;50.984;7.022;2023-02-11T08:35:59;23.97;;;11.70;;
12445;SDS011;6287;50.984;7.022;2023-02-11T08:38:26;25.57;;;11.10;;
12445;SDS011;6287;50.984;7.022;2023-02-11T08:40:54;26.03;;;12.03;;
12445;SDS011;6287;50.984;7.022;2023-02-11T08:43:22;29.70;;;13.33;;
12445;SDS011;6287;50.984;7.022;2023-02-11T08:45:48;25.10;;;12.57;;
12445;SDS011;6287;50.984;7.022;2023-02-11T08:48:16;26.03;;;11.80;;
12445;SDS011;6287;50.984;7.022;2023-02-11T08:50:44;26.07;;;11.97;;
12445;SDS011;6287;50.984;7.022;2023-02-11T08:53:12;25.33;;;12.07;;
12445;SDS011;6287;50.984;7.022;2023-02-11T08:55:46;26.00;;;11.67;;
12445;SDS011;6287;50.984;7.022;2023-02-11T08:58:13;27.30;;;12.80;;
12445;SDS011;6287;50.984;7.022;2023-02-11T09:00:39;26.57;;;13.07;;
12445;SDS011;6287;50.984;7.022;2023-02-11T09:03:11;27.93;;;12.77;;
12445;SDS011;6287;50.984;7.022;2023-02-11T09:05:46;26.53;;;12.20;;
12445;SDS011;6287;50.984;7.022;2023-02-11T09:08:17;23.60;;;11.67;;
12445;SDS011;6287;50.984;7.022;2023-02-11T09:10:47;24.77;;;13.20;;
12445;SDS011;6287;50.984;7.022;2023-02-11T09:13:13;23.93;;;11.43;;
12445;SDS011;6287;50.984;7.022;2023-02-11T09:15:38;25.53;;;11.87;;
12445;SDS011;6287;50.984;7.022;2023-02-11T09:18:04;32.07;;;13.30;;
12445;SDS011;6287;50.984;7.022;2023-02-11T09:20:33;28.00;;;12.30;;
12445;SDS011;6287;50.984;7.022;2023-02-11T09:23:00;27.03;;;12.67;;
12445;SDS011;6287;50.984;7.022;2023-02-11T09:25:26;25.47;;;11.80;;
12445;SDS011;6287;50.984;7.022;2023-02-11T09:27:51;30.23;;;12.90;;
12445;SDS011;6287;50.984;7.022;2023-02-11T09:30:17;29.97;;;12.53;;
12445;SDS011;6287;50.984;7.022;2023-02-11T09:32:45;25.50;;;13.43;;
12445;SDS011;6287;50.984;7.022;2023-02-11T09:35:11;29.23;;;12.43;;
12445;SDS011;6287;50.984;7.022;2023-02-11T09:37:39;24.97;;;10.93;;
12445;SDS011;6287;50.984;7.022;2023-02-11T09:40:05;25.83;;;12.47;;
12445;SDS011;6287;50.984;7.022;2023-02-11T09:45:02;27.77;;;11.43;;
12445;SDS011;6287;50.984;7.022;2023-02-11T09:47:38;20.90;;;10.57;;
12445;SDS011;6287;50.984;7.022;2023-02-11T09:50:15;25.67;;;10.90;;
12445;SDS011;6287;50.984;7.022;2023-02-11T09:52:49;30.30;;;11.90;;
12445;SDS011;6287;50.984;7.022;2023-02-11T09:55:35;25.17;;;11.70;;
12445;SDS011;6287;50.984;7.022;2023-02-11T09:58:11;24.83;;;11.83;;
12445;SDS011;6287;50.984;7.022;2023-02-11T10:11:35;19.60;;;11.97;;
12445;SDS011;6287;50.984;7.022;2023-02-11T10:20:13;30.37;;;15.40;;
12445;SDS011;6287;50.984;7.022;2023-02-11T10:22:59;21.33;;;11.83;;
12445;SDS011;6287;50.984;7.022;2023-02-11T10:25:36;25.40;;;11.67;;
12445;SDS011;6287;50.984;7.022;2023-02-11T10:28:14;24.23;;;12.90;;
12445;SDS011;6287;50.984;7.022;2023-02-11T10:30:44;21.83;;;12.93;;
12445;SDS011;6287;50.984;7.022;2023-02-11T10:36:06;22.80;;;11.23;;
12445;SDS011;6287;50.984;7.022;2023-02-11T10:38:37;23.40;;;11.13;;
12445;SDS011;6287;50.984;7.022;2023-02-11T10:41:05;26.80;;;12.00;;
12445;SDS011;6287;50.984;7.022;2023-02-11T10:43:36;21.53;;;11.30;;
12445;SDS011;6287;50.984;7.022;2023-02-11T10:46:02;24.73;;;12.47;;
12445;SDS011;6287;50.984;7.022;2023-02-11T10:53:35;27.50;;;12.70;;
12445;SDS011;6287;50.984;7.022;2023-02-11T10:56:01;22.97;;;12.33;;
12445;SDS011;6287;50.984;7.022;2023-02-11T10:58:33;24.53;;;14.67;;
12445;SDS011;6287;50.984;7.022;2023-02-11T11:01:05;26.50;;;12.80;;
12445;SDS011;6287;50.984;7.022;2023-02-11T11:03:38;23.33;;;11.60;;
12445;SDS011;6287;50.984;7.022;2023-02-11T11:06:09;22.03;;;11.00;;
12445;SDS011;6287;50.984;7.022;2023-02-11T11:08:40;20.60;;;11.40;;
12445;SDS011;6287;50.984;7.022;2023-02-11T11:11:15;26.53;;;12.37;;
12445;SDS011;6287;50.984;7.022;2023-02-11T11:16:21;21.13;;;11.63;;
12445;SDS011;6287;50.984;7.022;2023-02-11T11:19:13;21.33;;;11.37;;
12445;SDS011;6287;50.984;7.022;2023-02-11T11:21:48;23.47;;;11.43;;
12445;SDS011;6287;50.984;7.022;2023-02-11T11:24:30;23.10;;;11.33;;
12445;SDS011;6287;50.984;7.022;2023-02-11T11:26:59;25.50;;;12.30;;
12445;SDS011;6287;50.984;7.022;2023-02-11T11:29:38;19.90;;;10.77;;
12445;SDS011;6287;50.984;7.022;2023-02-11T11:32:13;23.47;;;11.37;;
12445;SDS011;6287;50.984;7.022;2023-02-11T11:34:40;22.43;;;11.90;;
12445;SDS011;6287;50.984;7.022;2023-02-11T11:37:25;24.77;;;11.87;;
12445;SDS011;6287;50.984;7.022;2023-02-11T11:39:59;24.83;;;12.37;;
12445;SDS011;6287;50.984;7.022;2023-02-11T11:42:32;31.07;;;17.57;;
12445;SDS011;6287;50.984;7.022;2023-02-11T11:45:00;31.70;;;16.90;;
12445;SDS011;6287;50.984;7.022;2023-02-11T11:55:47;20.63;;;11.03;;
12445;SDS011;6287;50.984;7.022;2023-02-11T11:58:33;24.87;;;10.43;;
12445;SDS011;6287;50.984;7.022;2023-02-11T12:06:38;25.47;;;11.20;;
12445;SDS011;6287;50.984;7.022;2023-02-11T12:09:22;22.87;;;12.17;;
12445;SDS011;6287;50.984;7.022;2023-02-11T12:28:50;24.43;;;11.93;;
12445;SDS011;6287;50.984;7.022;2023-02-11T12:31:31;24.70;;;11.77;;
12445;SDS011;6287;50.984;7.022;2023-02-11T12:42:37;33.57;;;19.63;;
12445;SDS011;6287;50.984;7.022;2023-02-11T12:45:44;54.33;;;31.70;;
12445;SDS011;6287;50.984;7.022;2023-02-11T12:53:23;39.33;;;17.27;;
12445;SDS011;6287;50.984;7.022;2023-02-11T13:02:32;29.23;;;15.33;;
12445;SDS011;6287;50.984;7.022;2023-02-11T13:05:15;36.70;;;18.03;;
12445;SDS011;6287;50.984;7.022;2023-02-11T13:07:55;31.17;;;15.33;;
12445;SDS011;6287;50.984;7.022;2023-02-11T13:13:28;27.53;;;13.27;;
12445;SDS011;6287;50.984;7.022;2023-02-11T13:19:13;29.83;;;13.40;;
12445;SDS011;6287;50.984;7.022;2023-02-11T13:22:09;29.50;;;14.33;;
12445;SDS011;6287;50.984;7.022;2023-02-11T13:24:57;32.10;;;15.13;;
12445;SDS011;6287;50.984;7.022;2023-02-11T13:30:40;30.60;;;14.67;;
12445;SDS011;6287;50.984;7.022;2023-02-11T13:35:43;31.30;;;14.23;;
12445;SDS011;6287;50.984;7.022;2023-02-11T13:38:23;33.47;;;14.10;;
12445;SDS011;6287;50.984;7.022;2023-02-11T13:43:28;29.33;;;14.07;;
12445;SDS011;6287;50.984;7.022;2023-02-11T13:46:06;29.33;;;14.53;;
12445;SDS011;6287;50.984;7.022;2023-02-11T13:48:44;27.73;;;13.53;;
12445;SDS011;6287;50.984;7.022;2023-02-11T13:51:13;27.67;;;13.50;;
12445;SDS011;6287;50.984;7.022;2023-02-11T13:53:44;34.37;;;14.87;;
12445;SDS011;6287;50.984;7.022;2023-02-11T13:56:29;26.53;;;14.20;;
12445;SDS011;6287;50.984;7.022;2023-02-11T14:02:25;31.87;;;16.67;;
12445;SDS011;6287;50.984;7.022;2023-02-11T14:13:25;32.37;;;14.53;;
12445;SDS011;6287;50.984;7.022;2023-02-11T14:23:39;31.33;;;14.50;;
12445;SDS011;6287;50.984;7.022;2023-02-11T14:26:14;30.63;;;15.70;;
12445;SDS011;6287;50.984;7.022;2023-02-11T14:28:46;32.77;;;13.73;;
12445;SDS011;6287;50.984;7.022;2023-02-11T14:34:28;33.60;;;14.97;;
12445;SDS011;6287;50.984;7.022;2023-02-11T14:42:34;30.20;;;13.80;;
12445;SDS011;6287;50.984;7.022;2023-02-11T14:45:07;26.07;;;13.70;;
12445;SDS011;6287;50.984;7.022;2023-02-11T14:47:45;34.67;;;14.30;;
12445;SDS011;6287;50.984;7.022;2023-02-11T14:50:39;27.87;;;13.60;;
12445;SDS011;6287;50.984;7.022;2023-02-11T14:53:09;30.70;;;13.80;;
12445;SDS011;6287;50.984;7.022;2023-02-11T14:55:43;30.40;;;14.13;;
12445;SDS011;6287;50.984;7.022;2023-02-11T14:58:19;34.53;;;14.97;;
12445;SDS011;6287;50.984;7.022;2023-02-11T15:00:48;28.20;;;13.70;;
12445;SDS011;6287;50.984;7.022;2023-02-11T15:03:36;33.63;;;15.07;;
12445;SDS011;6287;50.984;7.022;2023-02-11T15:06:11;28.60;;;13.33;;
12445;SDS011;6287;50.984;7.022;2023-02-11T15:08:47;27.30;;;13.00;;
12445;SDS011;6287;50.984;7.022;2023-02-11T15:11:15;32.20;;;15.47;;
12445;SDS011;6287;50.984;7.022;2023-02-11T15:13:43;30.30;;;14.10;;
12445;SDS011;6287;50.984;7.022;2023-02-11T15:16:13;31.60;;;14.87;;
12445;SDS011;6287;50.984;7.022;2023-02-11T15:18:44;28.17;;;13.33;;
12445;SDS011;6287;50.984;7.022;2023-02-11T15:21:22;28.53;;;13.33;;
12445;SDS011;6287;50.984;7.022;2023-02-11T15:23:54;28.07;;;13.47;;
12445;SDS011;6287;50.984;7.022;2023-02-11T15:26:25;31.83;;;13.40;;
12445;SDS011;6287;50.984;7.022;2023-02-11T15:28:55;26.43;;;13.80;;
12445;SDS011;6287;50.984;7.022;2023-02-11T15:31:22;32.13;;;13.83;;
12445;SDS011;6287;50.984;7.022;2023-02-11T15:33:50;25.13;;;13.20;;
12445;SDS011;6287;50.984;7.022;2023-02-11T15:36:17;26.10;;;13.53;;
12445;SDS011;6287;50.984;7.022;2023-02-11T15:38:44;26.47;;;13.00;;
12445;SDS011;6287;50.984;7.022;2023-02-11T15:41:31;29.43;;;14.00;;
12445;SDS011;6287;50.984;7.022;2023-02-11T15:43:59;28.33;;;13.83;;
12445;SDS011;6287;50.984;7.022;2023-02-11T15:46:26;25.47;;;12.73;;
12445;SDS011;6287;50.984;7.022;2023-02-11T15:49:05;33.60;;;14.30;;
12445;SDS011;6287;50.984;7.022;2023-02-11T15:51:33;27.63;;;13.07;;
12445;SDS011;6287;50.984;7.022;2023-02-11T15:54:17;24.27;;;12.57;;
12445;SDS011;6287;50.984;7.022;2023-02-11T15:56:45;27.37;;;13.33;;
12445;SDS011;6287;50.984;7.022;2023-02-11T16:01:56;27.03;;;12.43;;
12445;SDS011;6287;50.984;7.022;2023-02-11T16:04:30;28.43;;;12.77;;
12445;SDS011;6287;50.984;7.022;2023-02-11T16:06:58;27.97;;;13.40;;
12445;SDS011;6287;50.984;7.022;2023-02-11T16:09:34;25.23;;;12.63;;
12445;SDS011;6287;50.984;7.022;2023-02-11T16:12:16;29.97;;;12.50;;
12445;SDS011;6287;50.984;7.022;2023-02-11T16:14:50;27.53;;;13.10;;
12445;SDS011;6287;50.984;7.022;2023-02-11T16:19:46;31.43;;;14.23;;
12445;SDS011;6287;50.984;7.022;2023-02-11T16:22:17;26.00;;;13.13;;
12445;SDS011;6287;50.984;7.022;2023-02-11T16:24:54;30.40;;;14.33;;
12445;SDS011;6287;50.984;7.022;2023-02-11T16:29:52;30.63;;;14.77;;
12445;SDS011;6287;50.984;7.022;2023-02-11T16:32:23;28.37;;;13.20;;
12445;SDS011;6287;50.984;7.022;2023-02-11T16:34:50;29.30;;;13.30;;
12445;SDS011;6287;50.984;7.022;2023-02-11T16:37:17;30.73;;;12.87;;
12445;SDS011;6287;50.984;7.022;2023-02-11T16:39:42;30.87;;;14.20;;
12445;SDS011;6287;50.984;7.022;2023-02-11T16:42:10;35.23;;;14.87;;
12445;SDS011;6287;50.984;7.022;2023-02-11T16:44:39;30.83;;;14.17;;
12445;SDS011;6287;50.984;7.022;2023-02-11T16:47:12;31.23;;;15.10;;
12445;SDS011;6287;50.984;7.022;2023-02-11T16:49:48;28.33;;;14.23;;
12445;SDS011;6287;50.984;7.022;2023-02-11T16:52:14;30.33;;;14.27;;
12445;SDS011;6287;50.984;7.022;2023-02-11T16:54:44;26.33;;;13.57;;
12445;SDS011;6287;50.984;7.022;2023-02-11T16:57:12;31.53;;;14.63;;
12445;SDS011;6287;50.984;7.022;2023-02-11T16:59:43;32.73;;;14.40;;
12445;SDS011;6287;50.984;7.022;2023-02-11T17:04:57;29.77;;;13.90;;
12445;SDS011;6287;50.984;7.022;2023-02-11T17:07:25;33.87;;;15.10;;
12445;SDS011;6287;50.984;7.022;2023-02-11T17:09:53;28.00;;;13.90;;
12445;SDS011;6287;50.984;7.022;2023-02-11T17:12:21;32.70;;;14.57;;
12445;SDS011;6287;50.984;7.022;2023-02-11T17:14:49;28.70;;;14.50;;
12445;SDS011;6287;50.984;7.022;2023-02-11T17:17:17;30.07;;;14.60;;
12445;SDS011;6287;50.984;7.022;2023-02-11T17:19:45;29.77;;;13.60;;
12445;SDS011;6287;50.984;7.022;2023-02-11T17:22:14;30.53;;;14.63;;
12445;SDS011;6287;50.984;7.022;2023-02-11T17:24:42;36.00;;;15.13;;
12445;SDS011;6287;50.984;7.022;2023-02-11T17:27:10;35.47;;;15.40;;
12445;SDS011;6287;50.984;7.022;2023-02-11T17:29:39;32.20;;;14.00;;
12445;SDS011;6287;50.984;7.022;2023-02-11T17:32:05;29.43;;;13.70;;
12445;SDS011;6287;50.984;7.022;2023-02-11T17:34:31;35.57;;;17.27;;
12445;SDS011;6287;50.984;7.022;2023-02-11T17:36:59;30.33;;;14.90;;
12445;SDS011;6287;50.984;7.022;2023-02-11T17:39:32;36.33;;;15.93;;
12445;SDS011;6287;50.984;7.022;2023-02-11T17:42:01;33.70;;;15.90;;
12445;SDS011;6287;50.984;7.022;2023-02-11T17:44:32;33.60;;;15.77;;
12445;SDS011;6287;50.984;7.022;2023-02-11T17:46:58;34.37;;;15.90;;
12445;SDS011;6287;50.984;7.022;2023-02-11T17:49:28;35.73;;;16.83;;
12445;SDS011;6287;50.984;7.022;2023-02-11T17:51:54;35.07;;;16.13;;
12445;SDS011;6287;50.984;7.022;2023-02-11T17:54:20;35.03;;;16.23;;